Harrisville, Michigan
Current Conditions -  °F | °C
As of 12:13 PM on Friday 24 Oct 2014 (Local Time) from KOSC Reporting Station
Overcast Overcast  
Wind Chill: 53°   Ceiling: 3600
Heat Index: 53°   Visibility: 10mi
Dew Point: 44°   Wind: 6mph
Humidity: 72%   Direction: 230°SW
Pressure: 30.01"   Gusts: NA
Location:  44.66°N, 83.29°W
Report Text: KOSC 241613Z AUTO 23005KT 10SM OVC036 11/06 A3001 RMK AO2 T01150066
Loading
Personal Weather Stations






























Interactive Weather Map
Tropical Storm Tracking
New forecast layout! Learn more

10-Day Weather Forecast

Advertisements
Track Severe Weather on mobile